Time;durP1;ratioP1;P1;durP2;ratioP2;P2;SDS_P1;SDS_P2;PMS_P1;PMS_P2;Temp;Humidity;BMP_temperature;BMP_pressure;BME280_temperature;BME280_humidity;BME280_pressure;Samples;Min_cycle;Max_cycle;Signal;HPM_P1;HPM_P2
2023/03/01 00:00:51;;;;;;;10.63;9.00;;;;;;;4.85;100.00;93468.06;5072155;28;20059;-71
2023/03/01 00:03:17;;;;;;;11.00;8.90;;;;;;;4.79;100.00;93461.91;5071640;28;20098;-71
2023/03/01 00:05:48;;;;;;;11.70;9.45;;;;;;;4.67;100.00;93458.94;5062137;28;20106;-71
2023/03/01 00:08:16;;;;;;;12.70;9.02;;;;;;;4.65;100.00;93447.34;5068689;28;20181;-72
2023/03/01 00:10:42;;;;;;;14.23;9.75;;;;;;;4.54;100.00;93444.22;5072067;28;20052;-71
2023/03/01 00:13:09;;;;;;;10.93;9.15;;;;;;;4.47;100.00;93438.22;5071376;28;20087;-71
2023/03/01 00:15:39;;;;;;;11.43;9.27;;;;;;;4.28;100.00;93442.75;5071632;28;20056;-71
2023/03/01 00:18:06;;;;;;;11.07;8.95;;;;;;;4.31;100.00;93439.09;5066114;28;20045;-71
2023/03/01 00:20:32;;;;;;;10.63;8.18;;;;;;;4.44;100.00;93438.53;5063198;28;20098;-71
2023/03/01 00:22:59;;;;;;;11.43;9.40;;;;;;;4.35;100.00;93437.00;5057715;28;20037;-71
2023/03/01 00:25:27;;;;;;;11.15;8.57;;;;;;;4.34;100.00;93428.56;5070277;28;20041;-70
2023/03/01 00:27:54;;;;;;;11.48;9.05;;;;;;;4.40;100.00;93430.44;5061329;28;20049;-71
2023/03/01 00:30:21;;;;;;;13.18;9.85;;;;;;;4.32;100.00;93427.16;5071392;28;20044;-71
2023/03/01 00:32:47;;;;;;;13.25;10.93;;;;;;;4.42;100.00;93427.75;5071208;28;20489;-70
2023/03/01 00:35:14;;;;;;;10.55;9.32;;;;;;;4.27;100.00;93422.56;5071165;28;20048;-70
2023/03/01 00:37:42;;;;;;;12.52;10.00;;;;;;;4.29;100.00;93420.63;5071394;28;20098;-70
2023/03/01 00:40:10;;;;;;;13.00;10.90;;;;;;;4.23;100.00;93423.84;5071527;28;20056;-70
2023/03/01 00:42:38;;;;;;;14.10;11.60;;;;;;;4.26;100.00;93434.47;5070785;28;20084;-71
2023/03/01 00:45:06;;;;;;;12.77;11.30;;;;;;;4.16;100.00;93436.41;5070941;28;20565;-71
2023/03/01 00:47:32;;;;;;;13.27;11.57;;;;;;;4.08;100.00;93439.00;5071034;28;20059;-71
2023/03/01 00:49:59;;;;;;;14.07;12.02;;;;;;;3.98;100.00;93434.09;5071262;28;20041;-71
2023/03/01 00:52:26;;;;;;;13.75;12.15;;;;;;;4.10;100.00;93444.69;5071227;28;20094;-71
2023/03/01 00:54:53;;;;;;;13.82;12.27;;;;;;;3.89;100.00;93395.19;5071189;28;20062;-71
2023/03/01 00:57:20;;;;;;;15.95;12.98;;;;;;;4.06;100.00;93444.25;5071010;28;20063;-71
2023/03/01 00:59:48;;;;;;;12.68;11.38;;;;;;;3.99;100.00;93445.84;5070947;28;20044;-71
2023/03/01 01:02:15;;;;;;;15.55;12.77;;;;;;;4.04;100.00;93452.97;5071035;28;20114;-71
2023/03/01 01:04:41;;;;;;;14.15;12.63;;;;;;;4.02;100.00;93450.59;5071105;28;20075;-71
2023/03/01 01:07:08;;;;;;;14.25;12.23;;;;;;;3.85;100.00;93447.31;5070710;28;20123;-71
2023/03/01 01:09:35;;;;;;;16.40;13.85;;;;;;;3.90;100.00;93439.19;5070221;28;20098;-71
2023/03/01 01:12:02;;;;;;;16.30;13.52;;;;;;;3.85;100.00;93427.75;5070902;28;20161;-71
2023/03/01 01:14:29;;;;;;;16.08;13.43;;;;;;;3.84;100.00;93426.19;5070844;28;20485;-71
2023/03/01 01:16:57;;;;;;;15.70;13.55;;;;;;;3.82;100.00;93423.03;5070262;28;20044;-71
2023/03/01 01:19:24;;;;;;;15.88;13.27;;;;;;;3.87;100.00;93422.53;5044885;28;20123;-71
2023/03/01 01:21:51;;;;;;;14.32;12.80;;;;;;;3.85;100.00;93421.91;5070306;28;20485;-71
2023/03/01 01:24:18;;;;;;;15.65;13.75;;;;;;;3.91;100.00;93411.09;5070465;28;20045;-71
2023/03/01 01:26:45;;;;;;;15.75;13.77;;;;;;;3.97;100.00;93422.31;5064443;28;20045;-71
2023/03/01 01:29:13;;;;;;;13.90;12.25;;;;;;;4.03;100.00;93425.97;5070416;28;20040;-71
2023/03/01 01:31:42;;;;;;;15.85;13.55;;;;;;;4.10;100.00;93427.72;5070518;28;20106;-71
2023/03/01 01:34:15;;;;;;;14.40;12.70;;;;;;;4.13;100.00;93432.44;5070221;28;20044;-71
2023/03/01 01:36:42;;;;;;;16.33;13.63;;;;;;;4.04;100.00;93427.56;5070119;28;20059;-71
2023/03/01 01:39:12;;;;;;;16.20;13.93;;;;;;;4.14;100.00;93436.59;5070090;28;20057;-70
2023/03/01 01:41:41;;;;;;;15.27;13.65;;;;;;;4.23;100.00;93434.81;5070130;28;20037;-70
2023/03/01 01:44:18;;;;;;;15.95;14.15;;;;;;;4.18;100.00;93429.44;5070200;28;20416;-70
2023/03/01 01:46:48;;;;;;;16.10;14.40;;;;;;;4.27;100.00;93430.97;5070051;28;20409;-70
2023/03/01 01:49:25;;;;;;;14.70;12.85;;;;;;;4.19;100.00;93430.22;5069836;28;20049;-71
2023/03/01 01:52:01;;;;;;;14.70;12.95;;;;;;;4.31;100.00;93428.91;5043976;28;20052;-70
2023/03/01 01:54:34;;;;;;;16.63;13.85;;;;;;;4.21;100.00;93436.72;5069498;28;20101;-70
2023/03/01 01:57:04;;;;;;;17.75;15.00;;;;;;;4.22;100.00;93423.03;5069859;28;20052;-70
2023/03/01 01:59:33;;;;;;;15.50;13.75;;;;;;;4.11;100.00;93410.69;5069615;28;20064;-70
2023/03/01 02:02:02;;;;;;;15.20;13.43;;;;;;;4.24;100.00;93412.72;5069764;28;20542;-70
2023/03/01 02:04:33;;;;;;;12.68;11.38;;;;;;;4.20;100.00;93416.53;5069591;28;20101;-71
2023/03/01 02:07:04;;;;;;;13.32;11.93;;;;;;;4.21;100.00;93401.13;5069828;28;20052;-71
2023/03/01 02:09:32;;;;;;;12.55;11.25;;;;;;;4.23;100.00;93401.75;5069715;28;20118;-71
2023/03/01 02:11:59;;;;;;;11.65;10.20;;;;;;;4.12;100.00;93397.03;5069633;28;20414;-71
2023/03/01 02:14:26;;;;;;;13.00;11.63;;;;;;;4.10;100.00;93401.47;5069417;28;20090;-71
2023/03/01 02:16:53;;;;;;;11.25;10.15;;;;;;;4.10;100.00;93399.75;5069551;28;20126;-72
2023/03/01 02:19:31;;;;;;;11.52;10.40;;;;;;;3.85;100.00;93388.88;5068919;28;20048;-71
2023/03/01 02:22:08;;;;;;;12.18;10.98;;;;;;;3.72;100.00;93395.25;5044010;28;20195;-71
2023/03/01 02:24:43;;;;;;;12.50;11.30;;;;;;;3.70;100.00;93396.38;5069278;28;20110;-71
2023/03/01 02:27:11;;;;;;;11.52;10.43;;;;;;;3.73;100.00;93396.03;5069239;28;20067;-71
2023/03/01 02:29:40;;;;;;;11.73;10.63;;;;;;;3.76;100.00;93400.00;5069210;28;20558;-71
2023/03/01 02:32:06;;;;;;;11.80;10.68;;;;;;;3.77;100.00;93387.13;5068931;28;20072;-71
2023/03/01 02:34:34;;;;;;;10.13;9.13;;;;;;;3.69;100.00;93387.94;5069223;28;20055;-71
2023/03/01 02:37:04;;;;;;;11.00;9.90;;;;;;;3.76;100.00;93388.09;5068878;28;20040;-71
2023/03/01 02:39:37;;;;;;;9.52;8.63;;;;;;;3.61;100.00;93390.50;5069269;28;20147;-71
2023/03/01 02:42:06;;;;;;;10.30;9.30;;;;;;;3.57;100.00;93395.09;5069082;28;20135;-71
2023/03/01 02:44:33;;;;;;;9.75;8.85;;;;;;;3.50;100.00;93385.75;5069348;28;20414;-71
2023/03/01 02:47:03;;;;;;;10.38;9.38;;;;;;;3.55;100.00;93388.59;5042425;28;20114;-71
2023/03/01 02:49:34;;;;;;;9.65;8.75;;;;;;;3.56;100.00;93385.13;5068911;28;20065;-71
2023/03/01 02:52:29;;;;;;;9.25;8.35;;;;;;;3.58;100.00;93384.03;5069300;28;20063;-70
2023/03/01 02:55:02;;;;;;;9.65;8.75;;;;;;;3.61;100.00;93393.84;5068784;28;20041;-70
2023/03/01 02:57:30;;;;;;;8.88;8.05;;;;;;;3.58;100.00;93385.75;5069333;28;20048;-71
2023/03/01 03:00:00;;;;;;;9.40;8.50;;;;;;;3.50;100.00;93384.03;5068884;28;20493;-70
2023/03/01 03:02:37;;;;;;;9.77;8.88;;;;;;;3.57;100.00;93387.50;5069071;28;20110;-71
2023/03/01 03:05:08;;;;;;;10.05;9.05;;;;;;;3.68;100.00;93378.75;5068984;28;20052;-71
2023/03/01 03:07:36;;;;;;;8.68;7.85;;;;;;;3.60;100.00;93366.84;5067830;28;20044;-71
2023/03/01 03:10:04;;;;;;;8.02;7.22;;;;;;;3.62;100.00;93369.25;5068287;28;20539;-72
2023/03/01 03:12:31;;;;;;;9.13;8.20;;;;;;;3.85;100.00;93387.09;5068329;28;20057;-72
2023/03/01 03:14:58;;;;;;;8.63;7.82;;;;;;;3.93;100.00;93385.50;5068412;28;20044;-71
2023/03/01 03:17:24;;;;;;;7.43;6.72;;;;;;;3.85;100.00;93382.03;5068199;28;20475;-71
2023/03/01 03:19:52;;;;;;;7.45;6.75;;;;;;;3.82;100.00;93382.38;5068040;28;20040;-71
2023/03/01 03:22:19;;;;;;;7.53;6.45;;;;;;;3.86;100.00;93378.53;5068039;28;20098;-71
2023/03/01 03:24:47;;;;;;;6.82;6.22;;;;;;;3.47;100.00;93320.84;5068410;28;20048;-71
2023/03/01 03:27:14;;;;;;;7.78;7.07;;;;;;;3.80;100.00;93378.41;5068647;28;20089;-71
2023/03/01 03:29:41;;;;;;;8.20;7.40;;;;;;;3.85;100.00;93376.16;5068512;28;20110;-70
2023/03/01 03:32:08;;;;;;;7.25;6.55;;;;;;;3.96;100.00;93388.50;5068122;28;20048;-71
2023/03/01 03:34:34;;;;;;;8.02;7.22;;;;;;;4.03;100.00;93388.63;5068272;28;20044;-70
2023/03/01 03:37:02;;;;;;;9.15;8.25;;;;;;;3.96;100.00;93393.59;5068422;28;20044;-70
2023/03/01 03:39:34;;;;;;;9.52;8.57;;;;;;;4.05;100.00;93393.56;5068239;28;20102;-70
2023/03/01 03:42:01;;;;;;;9.80;8.80;;;;;;;4.10;100.00;93394.66;5068303;28;20117;-70
2023/03/01 03:44:46;;;;;;;8.88;7.97;;;;;;;3.95;100.00;93393.75;5068328;28;20114;-70
2023/03/01 03:47:13;;;;;;;9.23;8.33;;;;;;;3.83;100.00;93393.31;5068195;28;20106;-70
2023/03/01 03:49:39;;;;;;;9.43;8.43;;;;;;;3.90;100.00;93403.63;5068256;28;20118;-70
2023/03/01 03:52:13;;;;;;;9.32;8.32;;;;;;;3.87;100.00;93402.19;5067901;28;20093;-70
2023/03/01 03:54:40;;;;;;;8.75;7.80;;;;;;;3.65;100.00;93403.69;5068202;28;20080;-70
2023/03/01 03:57:07;;;;;;;8.88;7.68;;;;;;;3.68;100.00;93398.28;5069566;28;20404;-71
2023/03/01 03:59:33;;;;;;;7.60;6.80;;;;;;;3.70;100.00;93407.31;5071484;28;20057;-71
2023/03/01 04:02:00;;;;;;;8.15;7.00;;;;;;;3.64;100.00;93405.44;5071769;28;20048;-70
2023/03/01 04:04:27;;;;;;;8.65;7.75;;;;;;;3.65;100.00;93413.84;5071430;28;20045;-70
2023/03/01 04:06:53;;;;;;;9.35;7.43;;;;;;;3.76;100.00;93407.63;5066328;28;20102;-70
2023/03/01 04:09:21;;;;;;;9.98;7.82;;;;;;;3.66;100.00;93407.81;5071681;28;20040;-70
2023/03/01 04:11:48;;;;;;;9.30;7.43;;;;;;;3.77;100.00;93402.38;5071558;28;20116;-71
2023/03/01 04:14:15;;;;;;;8.45;7.18;;;;;;;3.74;100.00;93408.59;5071200;28;20094;-71
2023/03/01 04:16:42;;;;;;;7.93;6.90;;;;;;;3.63;100.00;93408.13;5071537;28;20044;-71
2023/03/01 04:19:09;;;;;;;9.57;7.63;;;;;;;3.57;100.00;93404.50;5070924;28;20056;-71
2023/03/01 04:21:36;;;;;;;9.35;7.90;;;;;;;3.59;100.00;93402.56;5070967;28;20055;-71
2023/03/01 04:24:03;;;;;;;11.73;7.93;;;;;;;3.61;100.00;93409.09;5071348;28;20052;-71
2023/03/01 04:26:31;;;;;;;9.30;7.55;;;;;;;3.68;100.00;93411.78;5071308;28;20051;-71
2023/03/01 04:28:58;;;;;;;10.55;7.90;;;;;;;3.72;100.00;93404.63;5070854;28;20554;-71
2023/03/01 04:31:25;;;;;;;8.77;7.75;;;;;;;3.61;100.00;93396.38;5071529;28;20408;-71
2023/03/01 04:33:53;;;;;;;10.02;7.68;;;;;;;3.70;100.00;93389.53;5071224;28;20044;-71
2023/03/01 04:36:22;;;;;;;10.25;7.45;;;;;;;3.72;100.00;93394.47;5066357;28;20041;-71
2023/03/01 04:38:49;;;;;;;9.10;7.25;;;;;;;3.68;100.00;93403.34;5069137;28;20530;-71
2023/03/01 04:41:17;;;;;;;9.27;7.40;;;;;;;3.68;100.00;93401.63;5069881;28;20558;-71
2023/03/01 04:43:46;;;;;;;8.98;7.22;;;;;;;3.66;100.00;93407.81;5070792;28;20090;-71
2023/03/01 04:46:15;;;;;;;9.10;7.80;;;;;;;3.62;100.00;93409.88;5070633;28;20041;-71
2023/03/01 04:48:44;;;;;;;8.88;7.60;;;;;;;3.42;100.00;93400.06;5070592;28;20041;-71
2023/03/01 04:51:13;;;;;;;9.88;7.72;;;;;;;3.48;100.00;93396.09;5070506;28;20045;-71
2023/03/01 04:53:40;;;;;;;9.57;7.53;;;;;;;3.67;100.00;93402.56;5067839;28;20123;-71
2023/03/01 04:56:07;;;;;;;9.60;8.10;;;;;;;3.57;100.00;93399.41;5071022;28;20094;-71
2023/03/01 04:58:34;;;;;;;8.77;7.70;;;;;;;3.78;100.00;93406.50;5065224;28;20053;-71
2023/03/01 05:01:02;;;;;;;9.32;8.10;;;;;;;3.88;100.00;93409.66;5070732;28;20041;-71
2023/03/01 05:03:28;;;;;;;10.50;8.38;;;;;;;4.07;100.00;93405.16;5070323;28;20052;-71
2023/03/01 05:06:00;;;;;;;9.82;8.45;;;;;;;4.22;100.00;93401.91;5070533;28;20078;-71
2023/03/01 05:08:27;;;;;;;12.18;10.13;;;;;;;3.99;100.00;93402.66;5069714;28;20054;-71
2023/03/01 05:10:54;;;;;;;9.93;8.90;;;;;;;4.13;100.00;93417.19;5065194;28;20044;-71
2023/03/01 05:13:22;;;;;;;9.80;8.80;;;;;;;4.29;100.00;93418.09;5070251;28;20079;-71
2023/03/01 05:15:50;;;;;;;10.57;9.20;;;;;;;4.18;100.00;93428.63;5070123;28;20044;-72
2023/03/01 05:18:18;;;;;;;9.77;8.77;;;;;;;4.16;100.00;93433.09;5069764;28;20047;-72
2023/03/01 05:20:46;;;;;;;11.55;10.20;;;;;;;4.32;100.00;93422.88;5070051;28;20565;-71
2023/03/01 05:23:12;;;;;;;13.82;11.75;;;;;;;4.33;100.00;93426.19;5070114;28;20048;-71
2023/03/01 05:25:41;;;;;;;11.18;9.70;;;;;;;4.23;100.00;93424.66;5070116;28;20101;-71
2023/03/01 05:28:12;;;;;;;13.38;10.93;;;;;;;4.25;100.00;93424.47;5069870;28;20041;-71
2023/03/01 05:30:39;;;;;;;13.13;11.00;;;;;;;4.40;100.00;93432.22;5069738;28;20566;-71
2023/03/01 05:33:12;;;;;;;12.75;10.82;;;;;;;4.46;100.00;93423.91;5069609;28;20046;-71
2023/03/01 05:35:42;;;;;;;23.35;13.35;;;;;;;4.30;100.00;93427.31;5069818;28;20091;-71
2023/03/01 05:38:12;;;;;;;47.55;27.52;;;;;;;4.23;100.00;93424.66;5069719;28;20057;-71
2023/03/01 05:40:39;;;;;;;21.00;14.30;;;;;;;4.17;100.00;93430.38;5069518;28;20056;-71
2023/03/01 05:43:07;;;;;;;17.52;12.73;;;;;;;4.25;100.00;93437.97;5069731;28;20052;-72
2023/03/01 05:45:33;;;;;;;11.20;8.65;;;;;;;4.32;100.00;93438.13;5069799;28;20049;-71
2023/03/01 05:48:04;;;;;;;8.98;7.35;;;;;;;4.24;100.00;93433.06;5069660;28;20086;-71
2023/03/01 05:50:34;;;;;;;10.27;8.45;;;;;;;4.18;100.00;93433.72;5069575;28;20114;-71
2023/03/01 05:53:05;;;;;;;14.05;9.95;;;;;;;4.06;100.00;93441.69;5069285;28;20538;-70
2023/03/01 05:55:33;;;;;;;12.10;9.05;;;;;;;4.06;100.00;93443.44;5068933;28;20052;-71
2023/03/01 05:58:00;;;;;;;10.20;8.23;;;;;;;4.00;100.00;93439.81;5069082;28;20118;-71
2023/03/01 06:00:28;;;;;;;10.90;7.95;;;;;;;4.07;100.00;93438.19;5069155;28;20059;-71
2023/03/01 06:02:55;;;;;;;11.13;8.27;;;;;;;4.21;100.00;93441.81;5069105;28;20040;-71
2023/03/01 06:05:23;;;;;;;10.05;7.03;;;;;;;4.23;100.00;93456.91;5069411;28;20041;-72
2023/03/01 06:07:49;;;;;;;12.35;10.00;;;;;;;4.24;100.00;93463.56;5069244;28;20045;-71
2023/03/01 06:10:18;;;;;;;15.90;11.88;;;;;;;4.17;100.00;93460.09;5068879;28;20064;-71
2023/03/01 06:12:45;;;;;;;16.38;11.95;;;;;;;4.10;100.00;93462.50;5068995;28;20052;-71
2023/03/01 06:15:14;;;;;;;12.73;9.70;;;;;;;4.03;100.00;93464.88;5069055;28;20041;-71
2023/03/01 06:17:43;;;;;;;10.30;8.05;;;;;;;4.01;100.00;93476.97;5068621;28;20044;-70
2023/03/01 06:20:12;;;;;;;12.02;8.43;;;;;;;4.06;100.00;93471.41;5068116;28;20098;-70
2023/03/01 06:22:39;;;;;;;14.48;9.75;;;;;;;4.09;100.00;93476.97;5068710;28;20076;-71
2023/03/01 06:25:07;;;;;;;14.88;10.75;;;;;;;4.13;100.00;93480.75;5068828;28;20488;-70
2023/03/01 06:27:35;;;;;;;14.50;10.80;;;;;;;4.02;100.00;93481.09;5068765;28;21189;-70
2023/03/01 06:30:02;;;;;;;22.40;14.63;;;;;;;4.12;100.00;93479.16;5068651;28;20040;-70
2023/03/01 06:32:30;;;;;;;12.38;9.23;;;;;;;3.97;100.00;93471.44;5068813;28;20443;-71
2023/03/01 06:34:58;;;;;;;18.83;13.93;;;;;;;4.09;100.00;93476.16;5068442;28;20679;-71
2023/03/01 06:37:25;;;;;;;12.10;10.05;;;;;;;4.25;100.00;93477.84;5068605;28;20090;-71
2023/03/01 06:39:52;;;;;;;10.02;8.25;;;;;;;4.32;100.00;93480.53;5068598;28;20060;-70
2023/03/01 06:42:18;;;;;;;9.55;7.57;;;;;;;4.34;100.00;93488.78;5068624;28;20072;-70
2023/03/01 06:44:46;;;;;;;10.50;8.40;;;;;;;4.37;100.00;93488.47;5068469;28;20052;-70
2023/03/01 06:47:13;;;;;;;11.57;9.00;;;;;;;4.37;100.00;93476.56;5068526;28;20070;-70
2023/03/01 06:49:40;;;;;;;9.48;7.95;;;;;;;4.58;100.00;93490.47;5069039;28;20052;-70
2023/03/01 06:52:06;;;;;;;7.82;6.93;;;;;;;4.45;100.00;93500.38;5068543;28;20086;-71
2023/03/01 06:54:33;;;;;;;8.88;7.82;;;;;;;4.55;100.00;93495.91;5058558;28;20049;-70
2023/03/01 06:57:00;;;;;;;8.60;7.43;;;;;;;4.42;100.00;93488.78;5066146;28;20090;-70
2023/03/01 06:59:26;;;;;;;8.75;7.30;;;;;;;4.33;100.00;93488.03;5058060;28;20057;-71
2023/03/01 07:01:55;;;;;;;12.57;8.38;;;;;;;4.30;100.00;93495.19;5066665;28;20185;-70
2023/03/01 07:04:21;;;;;;;24.30;14.40;;;;;;;4.06;100.00;93487.44;5068894;28;20045;-71
2023/03/01 07:06:54;;;;;;;21.17;13.68;;;;;;;4.09;100.00;93494.78;5068442;28;20044;-70
2023/03/01 07:09:21;;;;;;;11.75;10.40;;;;;;;4.25;100.00;93495.66;5069066;28;20056;-70
2023/03/01 07:11:48;;;;;;;10.60;9.05;;;;;;;4.32;100.00;93486.44;5068211;28;20052;-70
2023/03/01 07:14:15;;;;;;;9.27;8.25;;;;;;;4.47;100.00;93486.53;5068700;28;20049;-70
2023/03/01 07:16:41;;;;;;;10.48;8.57;;;;;;;4.47;100.00;93486.53;5068578;28;20048;-70
2023/03/01 07:19:10;;;;;;;11.50;9.35;;;;;;;4.58;100.00;93493.00;5068217;28;20122;-71
2023/03/01 07:21:38;;;;;;;11.57;9.55;;;;;;;4.62;100.00;93485.81;5068393;28;20040;-71
2023/03/01 07:24:06;;;;;;;10.25;8.85;;;;;;;4.51;100.00;93489.53;5068880;28;20558;-70
2023/03/01 07:26:32;;;;;;;28.75;16.33;;;;;;;4.55;100.00;93493.34;5068302;28;20053;-71
2023/03/01 07:29:00;;;;;;;75.50;42.47;;;;;;;4.41;100.00;93487.19;5068561;28;20045;-71
2023/03/01 07:31:27;;;;;;;39.58;24.52;;;;;;;4.43;100.00;93492.13;5056682;28;20049;-71
2023/03/01 07:33:54;;;;;;;40.78;30.05;;;;;;;4.52;100.00;93493.66;5072135;28;20049;-71
2023/03/01 07:36:23;;;;;;;13.57;11.00;;;;;;;4.50;100.00;93487.97;5072531;28;20044;-71
2023/03/01 07:38:50;;;;;;;13.35;9.80;;;;;;;4.70;100.00;93488.34;5046279;28;20492;-70
2023/03/01 07:41:17;;;;;;;13.00;11.60;;;;;;;4.88;100.00;93492.41;5071044;28;20530;-71
2023/03/01 07:43:44;;;;;;;10.95;8.32;;;;;;;5.05;100.00;93488.78;5072482;28;20049;-70
2023/03/01 07:46:10;;;;;;;10.52;9.00;;;;;;;5.19;100.00;93491.59;5072671;28;20052;-71
2023/03/01 07:48:37;;;;;;;8.35;6.80;;;;;;;5.04;100.00;93496.59;5072037;28;20090;-71
2023/03/01 07:51:06;;;;;;;10.20;8.38;;;;;;;5.15;100.00;93495.44;5071988;28;20090;-71
2023/03/01 07:53:35;;;;;;;11.75;7.95;;;;;;;5.10;100.00;93490.06;5072093;28;20094;-71
2023/03/01 07:56:03;;;;;;;9.52;7.13;;;;;;;4.94;100.00;93481.53;5071879;28;20040;-71
2023/03/01 07:58:29;;;;;;;9.98;7.88;;;;;;;4.93;100.00;93480.78;5045957;28;20040;-70
2023/03/01 08:00:56;;;;;;;8.93;7.88;;;;;;;5.01;100.00;93479.13;5071824;28;20106;-71
2023/03/01 08:03:23;;;;;;;12.23;10.00;;;;;;;4.80;100.00;93483.06;5071817;28;20036;-71
2023/03/01 08:05:49;;;;;;;8.48;7.60;;;;;;;4.89;100.00;93473.63;5071962;28;20125;-71
2023/03/01 08:08:16;;;;;;;9.32;8.15;;;;;;;4.97;100.00;93477.88;5072200;28;20041;-71
2023/03/01 08:10:44;;;;;;;8.20;7.40;;;;;;;5.01;100.00;93476.59;5054943;28;20049;-71
2023/03/01 08:13:11;;;;;;;10.00;8.18;;;;;;;4.90;100.00;93478.53;5072088;28;20411;-71
2023/03/01 08:15:37;;;;;;;19.17;12.20;;;;;;;4.90;100.00;93481.09;5071298;28;20045;-71
2023/03/01 08:18:04;;;;;;;14.65;12.02;;;;;;;4.95;100.00;93473.75;5071792;28;20527;-71
2023/03/01 08:20:31;;;;;;;14.73;10.88;;;;;;;4.86;100.00;93482.38;5071909;28;20106;-70
2023/03/01 08:22:59;;;;;;;11.30;8.27;;;;;;;5.05;100.00;93483.69;5071767;28;20110;-71
2023/03/01 08:25:25;;;;;;;13.75;9.65;;;;;;;5.07;100.00;93476.72;5071628;28;20118;-71
2023/03/01 08:27:53;;;;;;;20.95;14.65;;;;;;;5.15;100.00;93475.06;5071852;28;20078;-71
2023/03/01 08:30:20;;;;;;;11.93;8.77;;;;;;;5.18;100.00;93479.81;5071534;28;20454;-71
2023/03/01 08:32:47;;;;;;;10.18;7.95;;;;;;;5.20;100.00;93486.31;5071821;28;20048;-72
2023/03/01 08:35:13;;;;;;;8.90;6.90;;;;;;;5.09;100.00;93481.59;5071252;28;20044;-71
2023/03/01 08:37:40;;;;;;;8.50;7.07;;;;;;;5.20;100.00;93481.22;5071738;28;20045;-71
2023/03/01 08:40:09;;;;;;;7.72;5.75;;;;;;;5.20;100.00;93493.94;5070599;28;20459;-71
2023/03/01 08:42:36;;;;;;;10.35;6.15;;;;;;;5.28;100.00;93484.69;5070745;28;20052;-71
2023/03/01 08:45:06;;;;;;;5.60;4.25;;;;;;;5.27;100.00;93485.66;5070676;28;20206;-71
2023/03/01 08:47:34;;;;;;;8.15;5.07;;;;;;;5.37;100.00;93483.66;5071226;28;20559;-71
2023/03/01 08:50:00;;;;;;;6.85;5.13;;;;;;;5.45;100.00;93486.16;5057535;28;20051;-71
2023/03/01 08:52:27;;;;;;;6.22;5.45;;;;;;;5.51;100.00;93489.75;5071391;28;20082;-72
2023/03/01 08:54:54;;;;;;;6.88;5.47;;;;;;;5.55;100.00;93488.47;5071194;28;20040;-71
2023/03/01 08:57:21;;;;;;;8.30;5.47;;;;;;;5.73;100.00;93493.25;5071259;28;20045;-71
2023/03/01 08:59:47;;;;;;;10.07;7.63;;;;;;;5.71;100.00;93486.75;5070812;28;20102;-71
2023/03/01 09:02:18;;;;;;;8.93;7.43;;;;;;;5.85;100.00;93473.25;5070724;28;20106;-71
2023/03/01 09:04:45;;;;;;;9.32;6.50;;;;;;;5.85;100.00;93478.34;5070950;28;20074;-71
2023/03/01 09:07:12;;;;;;;6.75;5.03;;;;;;;5.98;100.00;93475.19;5070552;28;20044;-71
2023/03/01 09:09:38;;;;;;;10.40;7.40;;;;;;;6.15;100.00;93480.16;5070714;28;20094;-71
2023/03/01 09:12:06;;;;;;;11.57;8.35;;;;;;;6.23;100.00;93477.53;5070511;28;20036;-71
2023/03/01 09:14:33;;;;;;;9.35;6.10;;;;;;;6.48;100.00;93479.00;5070451;28;20048;-71
2023/03/01 09:17:02;;;;;;;7.78;5.00;;;;;;;6.76;100.00;93476.59;5070475;28;20098;-72
2023/03/01 09:19:30;;;;;;;7.18;5.50;;;;;;;6.51;100.00;93478.66;5064425;28;20052;-71
2023/03/01 09:21:58;;;;;;;7.38;5.55;;;;;;;6.64;100.00;93475.47;5070677;28;20048;-71
2023/03/01 09:24:25;;;;;;;6.63;4.68;;;;;;;6.79;100.00;93489.00;5069703;28;20559;-71
2023/03/01 09:26:55;;;;;;;5.90;4.75;;;;;;;6.93;100.00;93489.13;5070159;28;20048;-71
2023/03/01 09:29:21;;;;;;;6.68;4.53;;;;;;;7.09;100.00;93476.16;5069421;28;20086;-71
2023/03/01 09:31:48;;;;;;;6.43;4.53;;;;;;;6.55;100.00;93478.13;5057159;28;20055;-71
2023/03/01 09:34:16;;;;;;;7.60;5.18;;;;;;;6.70;100.00;93474.75;5065773;28;20331;-71
2023/03/01 09:36:44;;;;;;;6.03;4.32;;;;;;;6.51;100.00;93474.34;5062338;28;20516;-71
2023/03/01 09:39:10;;;;;;;6.18;5.13;;;;;;;6.38;100.00;93474.16;5066393;28;20056;-71
2023/03/01 09:41:47;;;;;;;6.82;4.60;;;;;;;6.54;100.00;93468.88;5064128;28;20406;-71
2023/03/01 09:44:29;;;;;;;6.63;5.05;;;;;;;6.54;100.00;93470.66;5052709;28;20040;-71
2023/03/01 09:46:57;;;;;;;7.03;4.78;;;;;;;6.64;100.00;93463.50;5069266;28;20140;-71
2023/03/01 09:49:27;;;;;;;6.03;4.63;;;;;;;6.79;100.00;93462.66;5069817;28;20517;-71
2023/03/01 09:52:08;;;;;;;9.60;4.70;;;;;;;7.04;100.00;93459.81;5069928;28;20053;-71
2023/03/01 09:54:34;;;;;;;7.53;5.80;;;;;;;6.99;100.00;93459.56;5070114;28;20094;-71
2023/03/01 09:57:17;;;;;;;5.43;4.38;;;;;;;6.71;100.00;93465.34;5069961;28;20052;-72
2023/03/01 10:00:08;;;;;;;15.00;8.65;;;;;;;6.68;100.00;93466.50;5069109;28;20508;-72
2023/03/01 10:02:42;;;;;;;8.27;5.97;;;;;;;6.44;100.00;93447.97;5069803;28;20052;-71
2023/03/01 10:05:29;;;;;;;55.13;25.45;;;;;;;6.58;100.00;93458.31;5069784;28;20439;-72
2023/03/01 10:08:10;;;;;;;303.55;94.45;;;;;;;6.63;100.00;93449.13;5069239;28;20496;-71
2023/03/01 10:10:39;;;;;;;10.88;8.10;;;;;;;6.80;100.00;93443.81;5069312;28;20040;-71
2023/03/01 10:13:17;;;;;;;16.52;9.65;;;;;;;6.68;100.00;93449.41;5069432;28;20504;-71
2023/03/01 10:15:48;;;;;;;7.15;5.40;;;;;;;6.77;100.00;93433.97;5069593;28;20455;-71
2023/03/01 10:18:20;;;;;;;10.02;6.10;;;;;;;6.93;100.00;93443.97;5068723;28;20875;-71
2023/03/01 10:20:54;;;;;;;7.93;4.95;;;;;;;6.97;100.00;93446.97;5065407;28;20044;-72
2023/03/01 10:23:23;;;;;;;6.57;4.50;;;;;;;7.01;100.00;93448.19;5069245;28;20094;-71
2023/03/01 10:26:06;;;;;;;8.50;5.63;;;;;;;7.18;100.00;93443.59;5067969;28;20044;-72
2023/03/01 10:28:52;;;;;;;8.52;5.13;;;;;;;7.20;100.00;93446.00;5069349;28;20440;-72
2023/03/01 10:31:27;;;;;;;6.18;4.25;;;;;;;6.78;100.00;93438.13;5068161;28;20044;-72
2023/03/01 10:33:56;;;;;;;5.68;3.70;;;;;;;6.95;100.00;93452.25;5069577;28;20048;-71
2023/03/01 10:36:23;;;;;;;5.47;3.90;;;;;;;6.96;100.00;93450.50;5069297;28;20052;-71
2023/03/01 10:38:54;;;;;;;5.05;3.90;;;;;;;6.73;100.00;93438.66;5056144;28;20455;-71
2023/03/01 10:41:23;;;;;;;9.52;6.30;;;;;;;6.62;100.00;93419.47;5056948;28;20671;-71
2023/03/01 10:43:53;;;;;;;4.72;3.80;;;;;;;6.62;100.00;93431.47;5068835;28;20051;-71
2023/03/01 10:46:28;;;;;;;7.25;4.93;;;;;;;6.91;100.00;93430.56;5068998;28;20044;-71
2023/03/01 10:49:08;;;;;;;6.13;4.25;;;;;;;7.04;100.00;93429.91;5069445;28;20044;-72
2023/03/01 10:51:35;;;;;;;9.70;6.13;;;;;;;7.14;100.00;93432.19;5068917;28;20559;-71
2023/03/01 10:54:04;;;;;;;8.73;5.93;;;;;;;7.32;100.00;93433.53;5067838;28;20086;-71
2023/03/01 10:56:48;;;;;;;11.63;7.15;;;;;;;7.45;100.00;93432.84;5065051;28;20048;-71
2023/03/01 10:59:25;;;;;;;7.85;5.82;;;;;;;7.01;100.00;93443.06;5066683;28;20116;-72
2023/03/01 11:02:04;;;;;;;9.68;5.85;;;;;;;6.90;100.00;93441.00;5068919;28;20052;-71
2023/03/01 11:04:30;;;;;;;14.02;7.95;;;;;;;7.07;100.00;93444.09;5064293;28;20056;-71
2023/03/01 11:07:00;;;;;;;8.27;5.10;;;;;;;7.31;100.00;93442.94;5059899;28;20045;-71
2023/03/01 11:09:37;;;;;;;10.57;7.15;;;;;;;7.22;100.00;93434.63;5068899;28;20496;-71
2023/03/01 11:12:06;;;;;;;7.95;5.55;;;;;;;7.33;100.00;93432.53;5068481;28;20064;-71
2023/03/01 11:14:37;;;;;;;6.43;5.07;;;;;;;7.64;100.00;93428.84;5068713;28;20122;-71
2023/03/01 11:17:07;;;;;;;7.45;4.93;;;;;;;7.86;100.00;93426.22;5068576;28;20090;-71
2023/03/01 11:19:34;;;;;;;10.60;7.07;;;;;;;8.11;100.00;93410.44;5068692;28;20052;-71
2023/03/01 11:22:04;;;;;;;9.00;5.50;;;;;;;7.66;100.00;93410.75;5068814;28;20049;-71
2023/03/01 11:24:41;;;;;;;7.07;4.93;;;;;;;7.86;100.00;93392.97;5068729;28;20546;-71
2023/03/01 11:27:17;;;;;;;10.93;6.82;;;;;;;7.41;100.00;93399.19;5061296;28;20095;-71
2023/03/01 11:29:46;;;;;;;9.27;6.53;;;;;;;7.28;100.00;93396.53;5064054;28;20094;-71
2023/03/01 11:32:15;;;;;;;9.45;5.95;;;;;;;6.95;100.00;93388.38;5061015;28;20448;-71
2023/03/01 11:34:48;;;;;;;20.65;12.25;;;;;;;7.01;100.00;93383.53;5068691;28;20044;-71